Time;durP1;ratioP1;P1;durP2;ratioP2;P2;SDS_P1;SDS_P2;PMS_P1;PMS_P2;Temp;Humidity;BMP_temperature;BMP_pressure;BME280_temperature;BME280_humidity;BME280_pressure;Samples;Min_cycle;Max_cycle;Signal;HPM_P1;HPM_P2
2021/10/08 00:01:44;;;;;;;16.40;9.80;;;13.50;99.90;;;;;;5035555;28;20231;-80
2021/10/08 00:04:10;;;;;;;11.67;8.33;;;13.50;99.90;;;;;;5034858;28;20657;-80
2021/10/08 00:06:35;;;;;;;16.43;8.87;;;13.40;99.90;;;;;;5033525;28;20236;-80
2021/10/08 00:09:01;;;;;;;13.50;9.07;;;13.40;99.90;;;;;;5037423;28;20173;-80
2021/10/08 00:11:27;;;;;;;17.97;10.13;;;13.30;99.90;;;;;;5034548;28;20263;-80
2021/10/08 00:13:53;;;;;;;15.57;8.60;;;13.30;99.90;;;;;;5033578;28;20295;-80
2021/10/08 00:16:19;;;;;;;17.98;10.57;;;13.20;99.90;;;;;;5036802;28;20224;-79
2021/10/08 00:18:46;;;;;;;18.20;9.55;;;13.20;99.90;;;;;;5036364;28;20253;-79
2021/10/08 00:21:12;;;;;;;15.10;9.25;;;13.20;99.90;;;;;;5037257;28;20223;-79
2021/10/08 00:23:38;;;;;;;20.77;10.70;;;13.30;99.90;;;;;;5035781;28;20177;-80
2021/10/08 00:26:03;;;;;;;13.00;7.80;;;13.30;99.90;;;;;;5035641;28;20956;-80
2021/10/08 00:28:29;;;;;;;13.87;9.80;;;13.30;99.90;;;;;;5035416;28;20177;-80
2021/10/08 00:30:54;;;;;;;16.53;9.80;;;13.30;99.90;;;;;;5034110;28;20179;-81
2021/10/08 00:33:20;;;;;;;17.77;9.20;;;13.30;99.90;;;;;;5035716;28;20688;-80
2021/10/08 00:35:46;;;;;;;15.50;9.60;;;13.30;99.90;;;;;;5018027;28;20617;-80
2021/10/08 00:38:11;;;;;;;15.00;9.70;;;13.30;99.90;;;;;;5018120;28;20169;-80
2021/10/08 00:40:41;;;;;;;20.07;10.47;;;13.30;99.90;;;;;;5033297;28;20169;-81
2021/10/08 00:43:07;;;;;;;14.00;8.90;;;13.30;99.90;;;;;;5016710;28;20203;-80
2021/10/08 00:45:33;;;;;;;15.73;9.88;;;13.30;99.90;;;;;;5034242;28;20201;-81
2021/10/08 00:48:02;;;;;;;16.13;10.10;;;13.30;99.90;;;;;;5035796;28;20171;-80
2021/10/08 00:50:28;;;;;;;18.33;9.30;;;13.20;99.90;;;;;;5036519;28;20185;-81
2021/10/08 00:52:54;;;;;;;14.50;8.77;;;13.30;99.90;;;;;;5034728;28;20243;-81
2021/10/08 00:55:20;;;;;;;20.35;9.70;;;13.30;99.90;;;;;;5035073;28;20408;-81
2021/10/08 00:57:46;;;;;;;17.38;10.02;;;13.40;99.90;;;;;;5037388;28;20172;-80
2021/10/08 01:00:17;;;;;;;16.40;10.00;;;13.30;99.90;;;;;;5036196;28;20237;-80
2021/10/08 01:02:43;;;;;;;15.27;10.20;;;13.20;99.90;;;;;;5037213;28;20170;-80
2021/10/08 01:05:10;;;;;;;14.45;9.77;;;13.30;99.90;;;;;;5035932;28;20174;-80
2021/10/08 01:07:35;;;;;;;15.18;9.73;;;13.20;99.90;;;;;;5035975;28;20271;-80
2021/10/08 01:10:01;;;;;;;17.07;10.03;;;13.20;99.90;;;;;;5037342;28;20181;-80
2021/10/08 01:12:26;;;;;;;16.63;10.50;;;13.20;99.90;;;;;;5038275;28;20181;-80
2021/10/08 01:14:52;;;;;;;19.17;11.20;;;13.10;99.90;;;;;;5036781;28;20288;-81
2021/10/08 01:17:19;;;;;;;14.10;9.57;;;13.10;99.90;;;;;;5038191;28;20289;-80
2021/10/08 01:19:45;;;;;;;15.00;10.20;;;13.20;99.90;;;;;;5036725;28;20182;-81
2021/10/08 01:22:11;;;;;;;16.70;11.20;;;13.20;99.90;;;;;;5019819;28;20178;-80
2021/10/08 01:24:37;;;;;;;23.77;11.68;;;13.20;99.90;;;;;;5037125;28;20412;-80
2021/10/08 01:27:04;;;;;;;20.08;11.43;;;13.20;99.90;;;;;;5037962;28;20201;-81
2021/10/08 01:29:31;;;;;;;16.17;10.32;;;13.20;99.90;;;;;;5037902;28;20273;-80
2021/10/08 01:31:57;;;;;;;16.92;9.93;;;13.00;99.90;;;;;;5039723;28;20200;-80
2021/10/08 01:34:23;;;;;;;22.60;12.13;;;12.90;99.90;;;;;;5037886;28;20201;-80
2021/10/08 01:36:48;;;;;;;17.77;10.33;;;12.90;99.90;;;;;;5039154;28;20217;-81
2021/10/08 01:39:14;;;;;;;15.43;9.70;;;12.80;99.90;;;;;;5036108;28;20661;-80
2021/10/08 01:41:39;;;;;;;18.80;10.43;;;12.70;99.90;;;;;;5039076;28;20181;-80
2021/10/08 01:44:05;;;;;;;16.03;9.93;;;12.70;99.90;;;;;;5039728;28;20184;-81
2021/10/08 01:46:30;;;;;;;23.17;11.33;;;12.70;99.90;;;;;;5041964;28;20225;-82
2021/10/08 01:48:56;;;;;;;15.70;9.63;;;12.70;99.90;;;;;;5045229;28;20644;-80
2021/10/08 01:51:22;;;;;;;15.70;10.70;;;12.70;99.90;;;;;;5038462;28;20231;-81
2021/10/08 01:53:48;;;;;;;16.50;8.88;;;12.70;99.90;;;;;;5036330;28;20232;-79
2021/10/08 01:56:13;;;;;;;19.33;10.60;;;12.60;99.90;;;;;;5036087;28;20189;-79
2021/10/08 01:58:39;;;;;;;17.17;10.50;;;12.60;99.90;;;;;;5036183;28;20260;-79
2021/10/08 02:01:08;;;;;;;18.70;11.10;;;12.60;99.90;;;;;;5036533;28;20184;-81
2021/10/08 02:03:34;;;;;;;16.35;10.45;;;12.60;99.90;;;;;;5035997;28;20174;-81
2021/10/08 02:06:00;;;;;;;18.27;9.90;;;12.50;99.90;;;;;;5036238;28;20244;-80
2021/10/08 02:08:25;;;;;;;19.02;10.98;;;12.50;99.90;;;;;;5019241;28;20192;-80
2021/10/08 02:10:51;;;;;;;19.63;10.40;;;12.40;99.90;;;;;;5035002;28;20268;-79
2021/10/08 02:13:18;;;;;;;20.83;10.20;;;12.40;99.90;;;;;;5018485;28;20209;-79
2021/10/08 02:15:45;;;;;;;17.08;10.52;;;12.30;99.90;;;;;;5036413;28;20796;-81
2021/10/08 02:18:10;;;;;;;17.95;11.05;;;12.30;99.90;;;;;;5034983;28;20174;-80
2021/10/08 02:20:36;;;;;;;19.07;11.00;;;12.20;99.90;;;;;;5037524;28;20260;-80
2021/10/08 02:23:02;;;;;;;21.80;11.37;;;12.20;99.90;;;;;;5037352;28;20181;-82
2021/10/08 02:25:27;;;;;;;20.45;13.10;;;12.10;99.90;;;;;;5038657;28;20174;-81
2021/10/08 02:27:53;;;;;;;19.43;11.50;;;12.10;99.90;;;;;;5037427;28;20219;-80
2021/10/08 02:30:18;;;;;;;22.40;12.37;;;12.00;99.90;;;;;;5021767;28;20170;-81
2021/10/08 02:32:44;;;;;;;24.03;13.57;;;11.90;99.90;;;;;;5038076;28;20596;-81
2021/10/08 02:35:09;;;;;;;22.80;11.07;;;12.00;99.90;;;;;;5038264;28;20215;-80
2021/10/08 02:37:35;;;;;;;18.07;11.47;;;12.00;99.90;;;;;;5038177;28;20189;-79
2021/10/08 02:40:01;;;;;;;22.43;12.47;;;11.90;99.90;;;;;;5036379;28;20216;-80
2021/10/08 02:42:27;;;;;;;22.10;13.57;;;11.90;99.90;;;;;;5038044;28;20660;-81
2021/10/08 02:44:52;;;;;;;21.67;12.77;;;11.90;99.90;;;;;;5022014;28;20197;-81
2021/10/08 02:47:26;;;;;;;20.30;11.57;;;11.90;99.90;;;;;;5039082;28;20291;-80
2021/10/08 02:49:52;;;;;;;16.88;11.23;;;12.10;99.90;;;;;;5022048;28;20207;-80
2021/10/08 02:52:17;;;;;;;23.50;12.97;;;12.10;99.90;;;;;;5038404;28;20181;-81
2021/10/08 02:54:43;;;;;;;23.17;12.33;;;12.20;99.90;;;;;;5036367;28;20212;-80
2021/10/08 02:57:08;;;;;;;18.23;11.67;;;12.40;99.90;;;;;;5037967;28;20190;-81
2021/10/08 02:59:34;;;;;;;21.93;11.60;;;12.50;99.90;;;;;;5036969;28;20185;-80
2021/10/08 03:01:59;;;;;;;24.87;12.73;;;12.40;99.90;;;;;;5037943;28;20165;-80
2021/10/08 03:04:25;;;;;;;22.67;13.83;;;12.10;99.90;;;;;;5037696;28;20641;-80
2021/10/08 03:06:50;;;;;;;20.90;12.20;;;11.90;99.90;;;;;;5037865;28;20205;-80
2021/10/08 03:09:16;;;;;;;23.63;13.90;;;11.90;99.90;;;;;;5037961;28;20181;-80
2021/10/08 03:11:42;;;;;;;29.23;13.70;;;11.70;99.90;;;;;;5036551;28;20209;-82
2021/10/08 03:14:08;;;;;;;23.77;13.55;;;11.70;99.90;;;;;;5037344;28;20212;-81
2021/10/08 03:16:33;;;;;;;22.30;13.43;;;11.70;99.90;;;;;;5036152;28;20197;-80
2021/10/08 03:18:59;;;;;;;27.30;14.53;;;11.70;99.90;;;;;;5036904;28;20248;-80
2021/10/08 03:21:28;;;;;;;22.35;12.57;;;11.70;99.90;;;;;;5038234;28;20196;-82
2021/10/08 03:23:54;;;;;;;31.33;14.02;;;11.70;99.90;;;;;;5037563;28;20166;-79
2021/10/08 03:26:19;;;;;;;26.60;14.87;;;11.80;99.90;;;;;;5037260;28;20189;-81
2021/10/08 03:28:45;;;;;;;27.17;13.97;;;11.80;99.90;;;;;;5036880;28;20250;-81
2021/10/08 03:31:12;;;;;;;24.67;13.37;;;11.90;99.90;;;;;;5033922;28;20197;-80
2021/10/08 03:33:37;;;;;;;25.20;13.27;;;11.90;99.90;;;;;;5031344;28;20284;-82
2021/10/08 03:36:03;;;;;;;22.77;13.23;;;12.00;99.90;;;;;;5039192;28;20229;-80
2021/10/08 03:38:31;;;;;;;35.60;13.63;;;12.00;99.90;;;;;;5037991;28;20220;-80
2021/10/08 03:43:29;;;;;;;24.95;13.82;;;11.90;99.90;;;;;;5038232;28;20197;-79
2021/10/08 03:46:00;;;;;;;27.58;14.55;;;11.80;99.90;;;;;;5040714;28;20204;-80
2021/10/08 03:50:59;;;;;;;21.42;12.13;;;11.90;99.90;;;;;;5043216;28;20195;-82
2021/10/08 03:53:25;;;;;;;28.60;15.80;;;11.80;99.90;;;;;;5040172;28;20232;-82
2021/10/08 03:55:50;;;;;;;27.90;13.97;;;11.70;99.90;;;;;;5044200;28;20223;-82
2021/10/08 03:58:16;;;;;;;28.90;14.50;;;11.70;99.90;;;;;;5043058;28;20173;-81
2021/10/08 04:00:42;;;;;;;23.57;13.20;;;11.60;99.90;;;;;;5036989;28;20173;-79
2021/10/08 04:03:07;;;;;;;27.95;14.55;;;11.60;99.90;;;;;;5039898;28;20204;-80
2021/10/08 04:05:36;;;;;;;29.40;12.23;;;11.50;99.90;;;;;;5039548;28;20205;-81
2021/10/08 04:08:01;;;;;;;25.80;15.13;;;11.50;99.90;;;;;;5039090;28;20189;-82
2021/10/08 04:10:30;;;;;;;30.20;15.13;;;11.50;99.90;;;;;;5039946;28;20173;-79
2021/10/08 04:12:55;;;;;;;28.67;14.80;;;11.50;99.90;;;;;;5037009;28;20189;-78
2021/10/08 04:15:22;;;;;;;35.83;15.23;;;11.40;99.90;;;;;;5035485;28;20224;-80
2021/10/08 04:17:47;;;;;;;27.25;15.15;;;11.30;99.90;;;;;;5033799;28;20207;-78
2021/10/08 04:20:13;;;;;;;23.07;13.47;;;11.30;99.90;;;;;;5033958;28;20630;-78
2021/10/08 04:22:39;;;;;;;26.80;14.80;;;11.30;99.90;;;;;;5033731;28;20223;-78
2021/10/08 04:25:05;;;;;;;26.43;14.63;;;11.20;99.90;;;;;;5033493;28;20193;-78
2021/10/08 04:27:31;;;;;;;33.08;14.90;;;11.30;99.90;;;;;;5034393;28;20541;-79
2021/10/08 04:29:56;;;;;;;28.30;15.70;;;11.30;99.90;;;;;;5036676;28;20215;-80
2021/10/08 04:32:22;;;;;;;26.23;14.37;;;11.30;99.90;;;;;;5033134;28;20213;-78
2021/10/08 04:34:47;;;;;;;31.60;15.43;;;11.30;99.90;;;;;;5032744;28;20254;-78
2021/10/08 04:37:13;;;;;;;30.40;15.70;;;11.20;99.90;;;;;;5033479;28;20781;-77
2021/10/08 04:39:38;;;;;;;29.73;15.30;;;11.20;99.90;;;;;;5032870;28;20680;-78
2021/10/08 04:42:04;;;;;;;33.90;16.67;;;11.20;99.90;;;;;;5032999;28;20683;-76
2021/10/08 04:44:32;;;;;;;33.60;16.30;;;11.20;99.90;;;;;;5033938;28;20235;-78
2021/10/08 04:46:58;;;;;;;31.55;16.83;;;11.20;99.90;;;;;;5032448;28;20190;-78
2021/10/08 04:49:24;;;;;;;31.38;15.57;;;11.30;99.90;;;;;;5032282;28;20264;-78
2021/10/08 04:51:50;;;;;;;30.73;16.73;;;11.20;99.90;;;;;;5034240;28;20200;-77
2021/10/08 04:54:15;;;;;;;31.80;15.47;;;11.20;99.90;;;;;;5033563;28;20228;-78
2021/10/08 04:56:41;;;;;;;35.03;16.67;;;11.20;99.90;;;;;;5033763;28;20240;-78
2021/10/08 04:59:07;;;;;;;31.13;15.60;;;11.20;99.90;;;;;;5033442;28;20240;-78
2021/10/08 05:01:32;;;;;;;36.23;17.10;;;11.20;99.90;;;;;;5032215;28;20223;-78
2021/10/08 05:03:58;;;;;;;36.00;17.57;;;11.20;99.90;;;;;;5032025;28;20173;-77
2021/10/08 05:06:23;;;;;;;30.87;15.57;;;11.30;99.90;;;;;;5032728;28;20314;-77
2021/10/08 05:08:49;;;;;;;32.77;14.50;;;11.30;99.90;;;;;;5032200;28;20817;-77
2021/10/08 05:11:15;;;;;;;24.77;14.13;;;11.30;99.90;;;;;;5032621;28;20220;-77
2021/10/08 05:13:41;;;;;;;28.38;14.85;;;11.20;99.90;;;;;;5032732;28;20263;-77
2021/10/08 05:16:07;;;;;;;25.83;14.80;;;11.20;99.90;;;;;;5032911;28;20190;-78
2021/10/08 05:18:32;;;;;;;35.07;17.00;;;11.20;99.90;;;;;;5032991;28;20422;-77
2021/10/08 05:20:58;;;;;;;28.80;16.60;;;11.20;99.90;;;;;;5032646;28;20170;-78
2021/10/08 05:23:23;;;;;;;29.40;15.63;;;11.20;99.90;;;;;;5033250;28;20273;-78
2021/10/08 05:25:49;;;;;;;28.80;14.00;;;11.20;99.90;;;;;;5033596;28;20201;-77
2021/10/08 05:28:14;;;;;;;34.40;16.47;;;11.10;99.90;;;;;;5033308;28;20272;-78
2021/10/08 05:30:40;;;;;;;29.40;14.70;;;11.10;99.90;;;;;;5032389;28;20252;-78
2021/10/08 05:33:05;;;;;;;30.50;15.60;;;11.10;99.90;;;;;;5032439;28;20179;-78
2021/10/08 05:35:31;;;;;;;30.43;16.10;;;11.10;99.90;;;;;;5033043;28;20259;-77
2021/10/08 05:37:57;;;;;;;29.27;14.97;;;11.10;99.90;;;;;;5032787;28;20667;-76
2021/10/08 05:40:22;;;;;;;36.40;14.63;;;11.10;99.90;;;;;;5032551;28;20439;-77
2021/10/08 05:42:48;;;;;;;30.53;16.23;;;11.10;99.90;;;;;;5032479;28;20611;-78
2021/10/08 05:45:14;;;;;;;26.07;13.93;;;11.10;99.90;;;;;;5032614;28;20173;-77
2021/10/08 05:47:43;;;;;;;29.83;15.13;;;11.10;99.90;;;;;;5033595;28;20170;-77
2021/10/08 05:50:09;;;;;;;30.23;15.07;;;11.00;99.90;;;;;;5033294;28;20541;-77
2021/10/08 05:52:34;;;;;;;29.10;14.63;;;11.00;99.90;;;;;;5034058;28;20182;-77
2021/10/08 05:55:00;;;;;;;27.33;15.60;;;11.00;99.90;;;;;;5036066;28;20209;-77
2021/10/08 05:57:25;;;;;;;27.90;14.93;;;11.10;99.90;;;;;;5037022;28;20200;-78
2021/10/08 05:59:51;;;;;;;27.17;14.80;;;11.10;99.90;;;;;;5037783;28;20174;-77
2021/10/08 06:02:16;;;;;;;27.93;14.60;;;11.10;99.90;;;;;;5037906;28;20170;-78
2021/10/08 06:04:42;;;;;;;27.80;14.90;;;11.10;99.90;;;;;;5038984;28;20184;-79
2021/10/08 06:07:10;;;;;;;27.83;14.40;;;11.20;99.90;;;;;;5043301;28;20216;-79
2021/10/08 06:09:35;;;;;;;28.70;15.02;;;11.10;99.90;;;;;;5044244;28;20180;-80
2021/10/08 06:12:02;;;;;;;31.67;15.63;;;11.20;99.90;;;;;;5046084;28;20173;-84
2021/10/08 06:14:28;;;;;;;28.08;15.75;;;11.10;99.90;;;;;;5055869;28;20227;-79
2021/10/08 06:16:53;;;;;;;32.13;16.77;;;11.20;99.90;;;;;;5040254;28;20197;-79
2021/10/08 06:19:19;;;;;;;31.30;14.57;;;11.20;99.90;;;;;;5037164;28;20231;-80
2021/10/08 06:21:44;;;;;;;29.03;15.27;;;11.20;99.90;;;;;;5037390;28;20572;-79
2021/10/08 06:24:10;;;;;;;29.47;15.03;;;11.10;99.90;;;;;;5037545;28;20182;-79
2021/10/08 06:26:36;;;;;;;32.93;16.47;;;11.10;99.90;;;;;;5037055;28;20227;-79
2021/10/08 06:29:01;;;;;;;27.87;14.57;;;11.10;99.90;;;;;;5037071;28;20645;-79
2021/10/08 06:31:27;;;;;;;26.43;14.57;;;11.20;99.90;;;;;;5037439;28;20181;-79
2021/10/08 06:33:52;;;;;;;29.17;16.00;;;11.20;99.90;;;;;;5037423;28;20287;-79
2021/10/08 06:36:18;;;;;;;39.60;15.63;;;11.20;99.90;;;;;;5037449;28;20199;-79
2021/10/08 06:38:43;;;;;;;23.50;13.60;;;11.30;99.90;;;;;;5036668;28;20178;-80
2021/10/08 06:41:09;;;;;;;36.13;17.00;;;11.20;99.90;;;;;;5038152;28;20181;-80
2021/10/08 06:43:35;;;;;;;26.07;13.63;;;11.30;99.90;;;;;;5037981;28;20611;-80
2021/10/08 06:46:00;;;;;;;24.93;13.03;;;11.30;99.90;;;;;;5037421;28;20221;-79
2021/10/08 06:48:26;;;;;;;22.83;14.17;;;11.40;99.90;;;;;;5038119;28;20412;-79
2021/10/08 06:50:52;;;;;;;26.55;15.07;;;11.40;99.90;;;;;;5036886;28;20232;-79
2021/10/08 06:53:18;;;;;;;28.20;15.13;;;11.30;99.90;;;;;;5037416;28;20649;-80
2021/10/08 06:55:43;;;;;;;24.73;13.70;;;11.40;99.90;;;;;;5038201;28;20189;-80
2021/10/08 06:58:09;;;;;;;25.53;13.90;;;11.50;99.90;;;;;;5038078;28;20541;-81
2021/10/08 07:00:34;;;;;;;26.40;13.87;;;11.50;99.90;;;;;;5037866;28;20522;-80
2021/10/08 07:03:00;;;;;;;24.53;14.60;;;11.50;99.90;;;;;;5037549;28;20184;-80
2021/10/08 07:05:26;;;;;;;25.20;16.03;;;11.60;99.90;;;;;;5037269;28;20173;-80
2021/10/08 07:07:52;;;;;;;25.27;14.60;;;11.50;99.90;;;;;;5037338;28;20596;-80
2021/10/08 07:10:19;;;;;;;23.83;14.60;;;11.50;99.90;;;;;;5038245;28;20776;-80
2021/10/08 07:12:44;;;;;;;35.67;14.88;;;11.50;99.90;;;;;;5019912;28;20213;-80
2021/10/08 07:15:16;;;;;;;23.40;15.37;;;11.50;99.90;;;;;;5036739;28;20232;-80
2021/10/08 07:17:45;;;;;;;36.30;15.23;;;11.50;99.90;;;;;;5036178;28;20409;-80
2021/10/08 07:20:12;;;;;;;25.20;15.70;;;11.60;99.90;;;;;;5036671;28;20180;-80
2021/10/08 07:22:38;;;;;;;25.52;15.05;;;11.50;99.90;;;;;;5035783;28;20220;-80
2021/10/08 07:25:06;;;;;;;26.47;15.23;;;11.50;99.90;;;;;;5037408;28;20177;-80
2021/10/08 07:27:32;;;;;;;25.30;14.48;;;11.50;99.90;;;;;;5037178;28;20433;-80
2021/10/08 07:29:57;;;;;;;28.27;13.60;;;11.60;99.90;;;;;;5036816;28;20165;-80
2021/10/08 07:32:23;;;;;;;31.13;16.40;;;11.70;99.90;;;;;;5019227;28;20173;-80
2021/10/08 07:34:48;;;;;;;24.60;15.30;;;11.70;99.90;;;;;;5035507;28;20189;-80
2021/10/08 07:37:14;;;;;;;26.67;14.70;;;11.80;99.90;;;;;;5037310;28;20233;-80
2021/10/08 07:39:42;;;;;;;27.00;14.97;;;11.80;99.90;;;;;;5035742;28;20188;-80
2021/10/08 07:42:08;;;;;;;24.23;14.93;;;11.90;99.90;;;;;;5035274;28;20580;-79
2021/10/08 07:44:34;;;;;;;25.20;14.27;;;12.10;99.90;;;;;;5036399;28;20774;-80
2021/10/08 07:47:00;;;;;;;21.23;11.87;;;12.10;99.90;;;;;;5035396;28;20190;-80
2021/10/08 07:49:26;;;;;;;24.17;13.60;;;12.40;99.90;;;;;;5037262;28;20420;-80
2021/10/08 07:51:51;;;;;;;25.67;14.20;;;12.40;99.90;;;;;;5036432;28;20415;-81
2021/10/08 07:54:17;;;;;;;30.17;15.63;;;12.40;99.90;;;;;;5035174;28;20189;-79
2021/10/08 07:56:42;;;;;;;24.80;12.67;;;12.20;99.90;;;;;;5036235;28;20193;-80
2021/10/08 07:59:08;;;;;;;29.67;13.77;;;12.10;99.90;;;;;;5034926;28;20648;-80
2021/10/08 08:01:34;;;;;;;29.63;16.30;;;12.00;99.90;;;;;;5035873;28;20664;-80
2021/10/08 08:03:59;;;;;;;25.30;14.17;;;12.00;99.90;;;;;;5035417;28;20197;-80
2021/10/08 08:06:25;;;;;;;29.40;15.97;;;12.20;99.90;;;;;;5036152;28;20229;-79
2021/10/08 08:08:50;;;;;;;22.30;13.67;;;12.30;99.90;;;;;;5036051;28;20178;-80
2021/10/08 08:11:16;;;;;;;25.87;14.03;;;12.30;99.90;;;;;;5035905;28;20648;-80
2021/10/08 08:13:41;;;;;;;28.00;15.87;;;12.30;99.90;;;;;;5034651;28;20260;-80
2021/10/08 08:16:07;;;;;;;23.43;13.93;;;12.40;99.90;;;;;;5036312;28;20557;-80
2021/10/08 08:18:35;;;;;;;29.73;15.90;;;12.40;99.90;;;;;;5035147;28;20659;-81
2021/10/08 08:21:01;;;;;;;24.13;13.90;;;12.80;99.90;;;;;;5034784;28;20550;-80
2021/10/08 08:23:27;;;;;;;28.63;15.10;;;12.70;99.90;;;;;;5034206;28;20181;-80
2021/10/08 08:25:54;;;;;;;24.50;14.20;;;12.50;99.90;;;;;;5036182;28;20197;-82
2021/10/08 08:28:20;;;;;;;28.65;15.32;;;12.50;99.90;;;;;;5036103;28;20219;-80
2021/10/08 08:30:45;;;;;;;25.47;15.90;;;12.60;99.90;;;;;;5035120;28;20177;-78
2021/10/08 08:33:12;;;;;;;23.13;14.40;;;12.70;99.90;;;;;;5033740;28;20248;-78
2021/10/08 08:35:38;;;;;;;22.00;14.27;;;12.80;99.90;;;;;;5033746;28;20680;-78
2021/10/08 08:38:04;;;;;;;24.50;15.07;;;12.80;99.90;;;;;;5033591;28;20177;-77
2021/10/08 08:40:30;;;;;;;24.55;14.95;;;12.90;99.90;;;;;;5033497;28;20165;-78
2021/10/08 08:43:00;;;;;;;20.43;11.77;;;12.80;99.90;;;;;;5031788;28;20268;-77
2021/10/08 08:45:26;;;;;;;21.83;13.07;;;13.00;99.90;;;;;;5032516;28;20229;-77
2021/10/08 08:47:58;;;;;;;27.50;14.80;;;13.10;99.90;;;;;;5032537;28;20687;-77
2021/10/08 08:50:24;;;;;;;24.05;13.27;;;13.10;99.90;;;;;;5032788;28;20169;-78
2021/10/08 08:52:49;;;;;;;18.70;12.60;;;13.40;99.90;;;;;;5032004;28;20552;-78
2021/10/08 08:55:15;;;;;;;22.37;12.70;;;13.80;99.90;;;;;;5033158;28;20182;-78
2021/10/08 08:57:43;;;;;;;16.63;10.13;;;14.00;99.90;;;;;;5033226;28;20207;-78
2021/10/08 09:00:16;;;;;;;18.17;11.00;;;14.20;99.90;;;;;;5031456;28;20235;-77
2021/10/08 09:02:42;;;;;;;17.80;10.60;;;14.30;99.90;;;;;;5032952;28;20180;-78
2021/10/08 09:05:18;;;;;;;21.85;10.98;;;14.30;99.90;;;;;;5033401;28;20983;-80
2021/10/08 09:07:44;;;;;;;14.02;9.70;;;14.00;99.90;;;;;;5033902;28;20188;-79
2021/10/08 09:10:19;;;;;;;14.10;8.93;;;14.20;99.90;;;;;;5035187;28;20212;-78
2021/10/08 09:12:47;;;;;;;15.43;8.70;;;14.00;99.90;;;;;;5033641;28;20173;-79
2021/10/08 09:15:14;;;;;;;15.77;10.30;;;13.90;99.90;;;;;;5035098;28;20177;-79
2021/10/08 09:17:40;;;;;;;17.25;10.10;;;13.90;99.90;;;;;;5035601;28;20185;-80
2021/10/08 09:20:14;;;;;;;20.50;9.20;;;13.90;99.90;;;;;;5035550;28;20541;-80
2021/10/08 09:22:45;;;;;;;13.85;8.32;;;13.90;99.90;;;;;;5035296;28;20931;-80
2021/10/08 09:25:35;;;;;;;15.30;9.40;;;14.10;99.90;;;;;;5033825;28;20208;-79
2021/10/08 09:28:08;;;;;;;13.60;8.55;;;14.20;99.90;;;;;;5036240;28;20166;-79
2021/10/08 09:30:41;;;;;;;14.50;8.55;;;14.40;99.90;;;;;;5038467;28;20640;-79
2021/10/08 09:33:12;;;;;;;13.80;7.95;;;14.50;99.90;;;;;;5038865;28;20174;-80
2021/10/08 09:35:39;;;;;;;11.30;7.03;;;14.30;99.90;;;;;;5021819;28;20274;-80
2021/10/08 09:38:14;;;;;;;13.73;7.97;;;14.30;99.90;;;;;;5037201;28;20178;-79
2021/10/08 09:40:50;;;;;;;15.77;8.30;;;14.40;99.90;;;;;;5037989;28;20630;-80
2021/10/08 09:43:30;;;;;;;12.10;7.65;;;14.50;99.90;;;;;;5021041;28;20429;-80
2021/10/08 09:46:00;;;;;;;14.40;7.13;;;14.70;99.90;;;;;;5038062;28;20190;-79
2021/10/08 09:48:42;;;;;;;9.65;6.32;;;14.50;99.90;;;;;;5037977;28;20401;-79
2021/10/08 09:51:15;;;;;;;12.10;7.07;;;14.40;99.90;;;;;;5036962;28;20174;-79
2021/10/08 09:53:46;;;;;;;18.77;7.07;;;14.40;99.90;;;;;;5038919;28;20408;-79
2021/10/08 09:56:39;;;;;;;10.43;5.97;;;14.40;99.90;;;;;;5038644;28;20195;-79
2021/10/08 09:59:13;;;;;;;11.75;6.00;;;14.60;99.90;;;;;;5037201;28;20420;-78
2021/10/08 10:01:41;;;;;;;13.73;6.30;;;14.70;99.90;;;;;;5037709;28;20222;-80
2021/10/08 10:04:08;;;;;;;10.53;5.67;;;14.80;99.90;;;;;;5037012;28;20314;-80
2021/10/08 10:06:37;;;;;;;10.13;6.50;;;14.90;99.90;;;;;;5038600;28;20433;-80
2021/10/08 10:09:04;;;;;;;10.50;6.30;;;15.00;99.90;;;;;;5037262;28;20416;-80
2021/10/08 10:11:30;;;;;;;10.77;6.37;;;14.90;99.90;;;;;;5038126;28;20554;-80
2021/10/08 10:13:59;;;;;;;9.77;6.38;;;14.80;99.90;;;;;;5019934;28;20451;-78
2021/10/08 10:16:26;;;;;;;10.77;6.30;;;14.90;99.90;;;;;;5036055;28;20286;-77
2021/10/08 10:18:54;;;;;;;14.73;5.70;;;15.00;99.90;;;;;;5036396;28;20421;-78
2021/10/08 10:21:22;;;;;;;9.77;6.10;;;15.10;99.90;;;;;;5036086;28;20479;-77
2021/10/08 10:23:52;;;;;;;13.57;6.87;;;15.20;99.90;;;;;;5035292;28;20821;-77
2021/10/08 10:26:19;;;;;;;11.50;6.20;;;15.10;99.90;;;;;;5035140;28;20434;-77
2021/10/08 10:28:45;;;;;;;8.83;6.83;;;15.20;99.90;;;;;;5017430;28;20425;-77
2021/10/08 10:31:12;;;;;;;14.73;7.50;;;15.00;99.90;;;;;;5034517;28;20477;-77
2021/10/08 10:33:38;;;;;;;15.00;6.07;;;14.90;99.90;;;;;;5035708;28;20442;-78
2021/10/08 10:36:06;;;;;;;18.77;7.70;;;15.00;99.90;;;;;;5035679;28;20429;-78
2021/10/08 10:38:40;;;;;;;15.00;7.60;;;15.00;99.90;;;;;;5035712;28;20471;-78
2021/10/08 10:41:08;;;;;;;18.97;8.10;;;15.10;99.90;;;;;;5034833;28;20421;-78
2021/10/08 10:43:50;;;;;;;14.53;6.80;;;15.20;99.90;;;;;;5035283;28;20467;-77
2021/10/08 10:46:34;;;;;;;7.97;5.80;;;15.30;99.90;;;;;;5034744;28;20515;-78
2021/10/08 10:49:58;;;;;;;11.57;6.47;;;15.40;99.90;;;;;;5034982;28;20407;-77
2021/10/08 10:52:01;;;;;;;10.80;5.93;;;15.50;99.90;;;;;;5030906;28;20415;-78
2021/10/08 10:54:51;;;;;;;17.33;6.57;;;15.60;99.90;;;;;;5035238;28;20404;-78
2021/10/08 10:57:23;;;;;;;11.80;6.60;;;15.60;99.90;;;;;;5028963;28;20475;-77
2021/10/08 10:59:49;;;;;;;8.53;6.10;;;15.60;99.90;;;;;;5035077;28;20415;-78
2021/10/08 11:02:25;;;;;;;11.43;6.93;;;15.70;99.90;;;;;;5033871;28;20488;-78
2021/10/08 11:05:09;;;;;;;15.17;7.10;;;15.60;99.90;;;;;;5033607;28;20463;-78
2021/10/08 11:07:35;;;;;;;14.53;8.33;;;15.50;99.90;;;;;;5034071;28;20435;-78
2021/10/08 11:10:03;;;;;;;9.60;6.90;;;15.60;99.90;;;;;;5035134;28;20416;-77
2021/10/08 11:12:40;;;;;;;18.53;8.67;;;15.50;99.90;;;;;;5035906;28;20173;-78
2021/10/08 11:15:15;;;;;;;13.50;7.47;;;15.50;99.90;;;;;;5021413;28;20424;-80
2021/10/08 11:18:00;;;;;;;9.57;6.50;;;15.40;99.90;;;;;;5038773;28;20465;-80
2021/10/08 11:20:32;;;;;;;11.80;6.33;;;15.40;99.90;;;;;;5038067;28;20473;-79
2021/10/08 11:23:29;;;;;;;11.53;8.00;;;15.50;99.90;;;;;;5036414;28;20450;-79
2021/10/08 11:26:04;;;;;;;10.20;6.40;;;15.60;99.90;;;;;;5039022;28;20956;-80
2021/10/08 11:28:38;;;;;;;9.00;6.40;;;15.80;99.90;;;;;;5039575;28;20396;-79
2021/10/08 11:31:06;;;;;;;12.47;6.83;;;15.90;99.90;;;;;;5037360;28;20422;-79
2021/10/08 11:33:35;;;;;;;8.70;6.23;;;15.90;99.90;;;;;;5034669;28;20502;-80
2021/10/08 11:36:12;;;;;;;11.30;7.40;;;15.90;99.90;;;;;;5033977;28;20424;-79
2021/10/08 11:38:37;;;;;;;9.57;6.90;;;15.70;99.90;;;;;;5036482;28;20442;-80
2021/10/08 11:41:14;;;;;;;12.90;6.00;;;15.90;99.90;;;;;;5019028;28;20416;-80
2021/10/08 11:43:40;;;;;;;12.03;5.70;;;15.80;99.90;;;;;;5034510;28;20204;-79
2021/10/08 11:48:51;;;;;;;10.23;6.20;;;15.90;99.90;;;;;;5036448;28;20419;-79
2021/10/08 11:51:17;;;;;;;9.63;6.63;;;16.00;99.90;;;;;;5034153;28;20989;-78
2021/10/08 11:53:48;;;;;;;11.00;6.30;;;16.10;99.90;;;;;;5034485;28;20416;-78
2021/10/08 11:56:33;;;;;;;8.90;6.20;;;16.20;99.90;;;;;;5033751;28;20204;-78
2021/10/08 11:58:58;;;;;;;9.23;5.90;;;16.20;99.90;;;;;;5034891;28;20455;-78
2021/10/08 12:01:25;;;;;;;8.47;5.60;;;16.10;99.90;;;;;;5035697;28;20408;-80
2021/10/08 12:03:52;;;;;;;9.60;5.90;;;16.20;99.90;;;;;;5036127;28;20622;-79
2021/10/08 12:06:26;;;;;;;8.47;5.97;;;16.20;99.90;;;;;;5034660;28;20464;-80
2021/10/08 12:08:52;;;;;;;11.40;7.00;;;16.20;99.90;;;;;;5034709;28;20448;-79
2021/10/08 12:11:20;;;;;;;15.17;6.07;;;16.20;99.90;;;;;;5035481;28;20900;-79
2021/10/08 12:13:48;;;;;;;15.70;6.10;;;16.10;99.90;;;;;;5033956;28;20423;-79
2021/10/08 12:16:17;;;;;;;8.23;5.80;;;16.10;99.90;;;;;;5036234;28;20439;-78
2021/10/08 12:18:52;;;;;;;8.63;5.33;;;15.90;99.90;;;;;;5036336;28;20542;-80
2021/10/08 12:21:20;;;;;;;9.57;5.60;;;15.80;99.90;;;;;;5034616;28;20938;-81
2021/10/08 12:24:08;;;;;;;11.50;6.17;;;15.70;99.90;;;;;;5034627;28;20456;-79
2021/10/08 12:26:39;;;;;;;8.60;5.23;;;15.80;99.90;;;;;;5036045;28;21021;-80
2021/10/08 12:29:13;;;;;;;11.00;5.73;;;15.80;99.90;;;;;;5035736;28;20404;-79
2021/10/08 12:31:58;;;;;;;11.40;5.40;;;15.80;99.90;;;;;;5034080;28;20795;-79
2021/10/08 12:34:54;;;;;;;15.43;7.40;;;15.80;99.90;;;;;;5035127;28;20405;-79
2021/10/08 12:37:31;;;;;;;10.17;5.33;;;16.00;99.90;;;;;;5027037;28;20436;-80
2021/10/08 12:40:01;;;;;;;7.83;6.03;;;16.00;99.90;;;;;;5035191;28;20400;-79
2021/10/08 12:42:32;;;;;;;13.17;6.00;;;16.10;99.90;;;;;;5018930;28;20478;-79